Time;durP1;ratioP1;P1;durP2;ratioP2;P2;SDS_P1;SDS_P2;PMS_P1;PMS_P2;Temp;Humidity;BMP_temperature;BMP_pressure;BME280_temperature;BME280_humidity;BME280_pressure;Samples;Min_cycle;Max_cycle;Signal;HPM_P1;HPM_P2
2022/02/26 00:00:26;;;;;;;11.45;4.10;;;2.20;92.70;;;0.86;79.60;98600.72;5031272;28;20423;-72
2022/02/26 00:02:52;;;;;;;13.30;4.10;;;2.20;92.70;;;0.80;79.57;98602.19;5030915;28;20399;-72
2022/02/26 00:05:18;;;;;;;9.32;3.67;;;2.20;92.70;;;0.73;79.81;98604.63;5031135;28;20495;-72
2022/02/26 00:07:44;;;;;;;6.72;3.38;;;2.10;92.70;;;0.64;79.67;98605.56;5030899;28;20490;-72
2022/02/26 00:10:10;;;;;;;10.77;3.65;;;2.00;92.60;;;0.61;79.71;98615.47;5031068;28;20413;-72
2022/02/26 00:12:36;;;;;;;8.15;3.63;;;1.90;92.60;;;0.53;79.89;98620.66;5030292;28;20403;-72
2022/02/26 00:15:04;;;;;;;10.83;3.80;;;1.90;92.70;;;0.56;80.55;98620.34;5031159;28;20940;-73
2022/02/26 00:17:30;;;;;;;10.53;4.43;;;1.90;92.90;;;0.62;80.90;98617.09;5030682;28;20465;-72
2022/02/26 00:19:56;;;;;;;12.95;4.30;;;1.90;93.30;;;0.71;81.20;98621.38;5030955;28;20410;-72
2022/02/26 00:22:22;;;;;;;11.60;4.65;;;2.00;93.40;;;0.83;81.28;98625.31;5030332;28;20416;-72
2022/02/26 00:24:48;;;;;;;7.65;3.50;;;2.10;93.50;;;0.95;80.83;98633.66;5030881;28;20812;-72
2022/02/26 00:27:14;;;;;;;11.65;4.05;;;2.20;93.40;;;1.05;80.94;98634.34;5030644;28;20907;-73
2022/02/26 00:29:40;;;;;;;12.98;4.18;;;2.30;93.30;;;1.13;80.52;98636.94;5030894;28;20422;-72
2022/02/26 00:32:08;;;;;;;9.55;3.55;;;2.40;93.20;;;1.20;80.37;98640.56;5030114;28;20873;-71
2022/02/26 00:34:34;;;;;;;9.75;3.65;;;2.40;93.10;;;1.26;80.19;98636.50;5030707;28;20497;-70
2022/02/26 00:37:00;;;;;;;7.55;3.30;;;2.50;93.00;;;1.32;79.67;98631.44;5030408;28;20403;-70
2022/02/26 00:39:25;;;;;;;9.60;3.80;;;2.60;92.90;;;1.38;79.64;98637.81;5030773;28;20609;-71
2022/02/26 00:41:51;;;;;;;7.35;3.22;;;2.60;92.70;;;1.42;79.34;98645.16;5028600;28;20426;-71
2022/02/26 00:44:19;;;;;;;10.32;3.60;;;2.70;92.70;;;1.47;79.26;98648.09;5030633;28;20710;-71
2022/02/26 00:46:45;;;;;;;12.93;3.95;;;2.70;92.60;;;1.51;78.89;98651.19;5030213;28;20750;-71
2022/02/26 00:51:58;;;;;;;10.85;3.53;;;2.80;92.30;;;1.55;78.13;98655.94;5029948;28;20409;-71
2022/02/26 00:54:24;;;;;;;10.27;3.63;;;2.80;92.10;;;1.58;78.48;98654.75;5030418;28;20411;-71
2022/02/26 00:56:50;;;;;;;6.95;3.20;;;2.80;92.10;;;1.60;78.15;98652.00;5029993;28;20900;-70
2022/02/26 00:59:16;;;;;;;9.50;3.78;;;2.80;92.10;;;1.63;78.26;98673.38;5030437;28;20403;-70
2022/02/26 01:01:42;;;;;;;9.60;3.70;;;2.80;92.10;;;1.63;77.99;98678.59;5028550;28;20426;-72
2022/02/26 01:04:09;;;;;;;9.93;4.25;;;2.90;92.00;;;1.65;78.09;98681.88;5030542;28;20454;-71
2022/02/26 01:06:36;;;;;;;13.40;3.90;;;2.90;91.90;;;1.62;77.37;98676.97;5030626;28;20888;-71
2022/02/26 01:09:03;;;;;;;10.50;3.83;;;2.80;91.60;;;1.64;77.63;98677.63;5032010;28;20407;-71
2022/02/26 01:11:30;;;;;;;10.73;3.90;;;2.90;91.80;;;1.63;77.79;98681.22;5030639;28;20411;-72
2022/02/26 01:13:58;;;;;;;11.23;3.60;;;2.90;91.70;;;1.65;77.73;98681.88;5029541;28;20482;-71
2022/02/26 01:16:25;;;;;;;10.48;3.90;;;2.90;91.70;;;1.67;77.85;98684.28;5029752;28;20911;-71
2022/02/26 01:18:51;;;;;;;7.70;3.75;;;2.90;91.80;;;1.68;77.52;98689.34;5029635;28;20395;-71
2022/02/26 01:21:17;;;;;;;8.50;3.70;;;2.90;91.70;;;1.68;77.48;98684.13;5029214;28;20423;-71
2022/02/26 01:23:44;;;;;;;8.68;3.47;;;2.90;91.60;;;1.70;77.30;98684.81;5029491;28;20413;-71
2022/02/26 01:26:11;;;;;;;9.88;3.72;;;2.90;91.60;;;1.70;77.03;98683.97;5029125;28;20403;-71
2022/02/26 01:28:37;;;;;;;7.70;3.35;;;2.90;91.50;;;1.68;77.30;98681.53;5029804;28;20399;-71
2022/02/26 01:31:03;;;;;;;8.83;3.60;;;2.90;91.50;;;1.69;77.38;98691.00;5029989;28;20452;-71
2022/02/26 01:33:29;;;;;;;11.10;3.97;;;2.90;91.60;;;1.69;76.76;98684.97;5029302;28;20738;-71
2022/02/26 01:35:55;;;;;;;9.95;4.15;;;2.90;91.40;;;1.68;76.89;98681.53;5029569;28;20411;-71
2022/02/26 01:38:21;;;;;;;11.77;4.03;;;2.90;91.40;;;1.67;76.91;98686.91;5029778;28;20438;-71
2022/02/26 01:40:48;;;;;;;9.70;3.58;;;2.90;91.30;;;1.66;77.11;98687.88;5029572;28;20415;-71
2022/02/26 01:43:14;;;;;;;6.80;3.20;;;2.90;91.40;;;1.63;77.11;98690.84;5029292;28;20940;-71
2022/02/26 01:45:40;;;;;;;12.32;3.95;;;2.90;91.40;;;1.60;77.33;98689.34;5029717;28;20410;-71
2022/02/26 01:48:05;;;;;;;10.20;3.60;;;2.80;91.40;;;1.60;77.44;98691.13;5029271;28;20405;-71
2022/02/26 01:50:31;;;;;;;6.78;3.10;;;2.90;91.50;;;1.60;77.26;98693.75;5029711;28;20469;-70
2022/02/26 01:52:58;;;;;;;7.75;3.40;;;2.80;91.60;;;1.63;77.69;98696.88;5029231;28;20765;-70
2022/02/26 01:55:25;;;;;;;9.20;3.75;;;2.90;91.70;;;1.63;77.46;98689.03;5029683;28;20493;-71
2022/02/26 01:57:52;;;;;;;9.65;4.03;;;2.90;91.60;;;1.64;77.12;98688.06;5029269;28;20803;-71
2022/02/26 02:00:19;;;;;;;11.25;3.78;;;2.90;91.60;;;1.64;76.94;98682.84;5029614;28;20399;-71
2022/02/26 02:02:45;;;;;;;9.07;3.40;;;2.90;91.50;;;1.63;77.17;98691.66;5028917;28;20970;-71
2022/02/26 02:05:11;;;;;;;7.10;3.40;;;2.90;91.50;;;1.62;77.11;98684.78;5028268;28;20456;-71
2022/02/26 02:07:38;;;;;;;8.80;3.90;;;2.80;91.50;;;1.60;nan;98683.31;5029343;28;20407;-71
2022/02/26 02:10:04;;;;;;;9.50;3.63;;;2.80;91.50;;;1.54;76.98;98680.38;5029307;28;20412;-71
2022/02/26 02:12:31;;;;;;;8.67;3.83;;;2.80;91.40;;;1.46;77.19;98679.56;5028608;28;20403;-71
2022/02/26 02:14:58;;;;;;;7.17;3.10;;;2.80;91.30;;;1.35;76.97;98682.50;5029512;28;20418;-71
2022/02/26 02:17:24;;;;;;;7.05;3.53;;;2.60;91.20;;;1.28;77.32;98689.31;5029067;28;20410;-71
2022/02/26 02:19:51;;;;;;;11.32;4.43;;;2.60;91.50;;;1.30;77.93;98687.34;5029427;28;20411;-71
2022/02/26 02:22:19;;;;;;;11.20;4.25;;;2.50;91.70;;;1.29;78.17;98691.75;5028741;28;20419;-70
2022/02/26 02:24:46;;;;;;;6.72;3.30;;;2.60;92.00;;;1.31;78.44;98684.59;5029483;28;20452;-71
2022/02/26 02:27:12;;;;;;;7.83;3.73;;;2.60;92.10;;;1.35;78.34;98685.09;5029101;28;20919;-71
2022/02/26 02:29:38;;;;;;;10.10;3.83;;;2.60;92.10;;;1.39;78.40;98692.44;5029551;28;20873;-71
2022/02/26 02:32:06;;;;;;;14.40;4.87;;;2.60;92.00;;;1.41;77.74;98692.28;5030827;28;20482;-71
2022/02/26 02:34:32;;;;;;;11.57;3.90;;;2.60;91.90;;;1.39;77.92;98689.81;5033031;28;20391;-71
2022/02/26 02:36:58;;;;;;;8.10;4.35;;;2.70;91.80;;;1.41;78.08;98694.88;5032658;28;20403;-71
2022/02/26 02:39:26;;;;;;;7.20;3.90;;;2.70;91.90;;;1.41;78.10;98694.88;5033048;28;20419;-71
2022/02/26 02:41:52;;;;;;;13.45;4.28;;;2.70;91.90;;;1.43;78.11;98703.34;5032226;28;20506;-71
2022/02/26 02:44:19;;;;;;;11.90;4.33;;;2.70;91.90;;;1.43;78.18;98700.72;5032998;28;20403;-71
2022/02/26 02:46:45;;;;;;;14.15;5.50;;;2.70;91.90;;;1.44;77.81;98707.59;5032473;28;20974;-71
2022/02/26 02:49:12;;;;;;;13.52;4.70;;;2.70;91.80;;;1.45;77.98;98706.63;5032693;28;20442;-71
2022/02/26 02:51:38;;;;;;;9.93;4.07;;;2.70;91.80;;;1.45;77.93;98704.00;5032089;28;20402;-71
2022/02/26 02:54:05;;;;;;;14.45;4.97;;;2.70;91.80;;;1.45;77.53;98702.22;5032727;28;20904;-70
2022/02/26 02:56:32;;;;;;;16.70;4.97;;;2.70;91.80;;;1.42;77.92;98704.34;5032302;28;20395;-71
2022/02/26 02:58:58;;;;;;;12.13;4.70;;;2.70;91.70;;;1.40;77.93;98712.34;5032639;28;20399;-71
2022/02/26 03:01:24;;;;;;;12.25;5.20;;;2.60;91.70;;;1.36;77.83;98712.78;5032372;28;20419;-71
2022/02/26 03:03:50;;;;;;;11.25;4.40;;;2.60;91.70;;;1.34;78.07;98719.97;5032032;28;20403;-71
2022/02/26 03:06:16;;;;;;;20.50;5.50;;;2.60;91.80;;;1.31;77.99;98722.91;5032126;28;20410;-71
2022/02/26 03:08:42;;;;;;;9.55;5.18;;;2.60;91.90;;;1.30;78.24;98722.06;5032512;28;20414;-71
2022/02/26 03:11:08;;;;;;;12.80;6.00;;;2.60;92.00;;;1.33;78.29;98713.13;5032101;28;20963;-71
2022/02/26 03:13:37;;;;;;;9.23;4.30;;;2.60;92.00;;;1.32;78.48;98722.75;5031392;28;20979;-71
2022/02/26 03:16:03;;;;;;;17.02;5.63;;;2.60;92.00;;;1.34;78.13;98731.22;5031896;28;20897;-71
2022/02/26 03:18:29;;;;;;;11.48;5.13;;;2.60;92.00;;;1.34;78.08;98728.63;5032283;28;20422;-71
2022/02/26 03:20:55;;;;;;;14.63;5.20;;;2.60;92.00;;;1.39;78.13;98733.34;5031992;28;20904;-71
2022/02/26 03:23:21;;;;;;;12.93;5.45;;;2.60;92.00;;;1.40;78.33;98727.97;5031802;28;20427;-71
2022/02/26 03:25:47;;;;;;;20.03;5.93;;;2.70;92.00;;;1.40;78.05;98729.78;5032263;28;20405;-71
2022/02/26 03:28:13;;;;;;;21.30;6.50;;;2.60;91.90;;;1.42;77.92;98727.81;5031749;28;20399;-71
2022/02/26 03:30:40;;;;;;;12.20;5.50;;;2.70;91.90;;;1.41;77.88;98732.22;5031875;28;20435;-71
2022/02/26 03:33:06;;;;;;;13.23;5.27;;;2.60;91.80;;;1.40;77.77;98730.59;5031372;28;20411;-71
2022/02/26 03:35:33;;;;;;;12.85;5.50;;;2.60;91.80;;;1.38;77.95;98732.53;5031888;28;20403;-71
2022/02/26 03:37:59;;;;;;;9.10;4.53;;;2.70;91.90;;;1.34;77.58;98736.44;5031522;28;20407;-71
2022/02/26 03:40:26;;;;;;;13.52;6.05;;;2.60;91.70;;;1.27;77.58;98732.84;5031825;28;20395;-72
2022/02/26 03:42:52;;;;;;;14.73;6.50;;;2.60;91.70;;;1.20;78.40;98725.81;5030706;28;20406;-71
2022/02/26 03:45:18;;;;;;;16.50;5.93;;;2.50;91.90;;;1.13;78.60;98731.63;5031771;28;20749;-72
2022/02/26 03:47:46;;;;;;;17.05;6.45;;;2.40;92.10;;;1.10;79.04;98731.97;5031413;28;20435;-72
2022/02/26 03:50:12;;;;;;;15.57;5.68;;;2.40;92.20;;;1.09;79.02;98737.34;5031712;28;20502;-71
2022/02/26 03:52:39;;;;;;;14.57;6.22;;;2.40;92.30;;;1.06;78.96;98743.69;5030834;28;20533;-71
2022/02/26 03:55:07;;;;;;;12.13;5.70;;;2.40;92.40;;;1.02;78.96;98746.78;5031634;28;20395;-71
2022/02/26 03:57:33;;;;;;;10.65;5.50;;;2.30;92.30;;;0.96;78.92;98750.81;5031552;28;20426;-71
2022/02/26 03:59:59;;;;;;;13.13;6.40;;;2.30;92.20;;;0.91;79.08;98753.06;5031574;28;20446;-71
2022/02/26 04:02:25;;;;;;;13.23;6.28;;;2.20;92.20;;;0.87;79.20;98761.38;5013510;28;20836;-71
2022/02/26 04:04:53;;;;;;;11.90;5.85;;;2.20;92.30;;;0.81;79.18;98760.22;5028665;28;20466;-73
2022/02/26 04:07:19;;;;;;;13.45;6.55;;;2.10;92.40;;;0.77;79.66;98761.47;5003339;28;20828;-74
2022/02/26 04:09:44;;;;;;;12.70;6.20;;;2.10;92.50;;;0.71;79.62;98762.91;5023238;28;20405;-74
2022/02/26 04:12:11;;;;;;;17.10;7.23;;;2.00;92.50;;;0.70;79.83;98768.28;5018170;28;20801;-74
2022/02/26 04:14:36;;;;;;;18.52;8.18;;;2.00;92.60;;;0.69;79.85;98764.03;5027849;28;20406;-73
2022/02/26 04:17:03;;;;;;;15.13;6.65;;;2.00;92.80;;;0.63;80.13;98773.28;5020180;28;20547;-73
2022/02/26 04:19:29;;;;;;;12.77;6.50;;;2.00;92.80;;;0.62;80.26;98776.03;5018788;28;20805;-73
2022/02/26 04:21:56;;;;;;;23.30;8.38;;;1.90;92.90;;;0.65;80.50;98770.53;5020054;28;20419;-73
2022/02/26 04:24:22;;;;;;;22.05;8.00;;;1.90;93.00;;;0.61;80.48;98774.41;5019964;28;20952;-73
2022/02/26 04:26:48;;;;;;;16.48;7.10;;;1.90;93.00;;;0.59;80.48;98784.19;5018521;28;20494;-73
2022/02/26 04:29:14;;;;;;;15.40;7.28;;;1.90;93.00;;;0.61;80.79;98779.63;5020715;28;20465;-74
2022/02/26 04:31:40;;;;;;;19.10;6.90;;;1.90;93.10;;;0.61;80.70;98783.03;5018962;28;20401;-74
2022/02/26 04:34:06;;;;;;;19.98;7.93;;;1.90;93.10;;;0.64;80.66;98782.75;5001416;28;20828;-73
2022/02/26 04:36:33;;;;;;;18.13;8.10;;;1.90;93.30;;;0.68;80.79;98780.63;5020292;28;20460;-74
2022/02/26 04:39:00;;;;;;;19.83;8.63;;;2.00;93.30;;;0.68;80.90;98778.03;5019193;28;20400;-73
2022/02/26 04:41:26;;;;;;;16.00;7.53;;;1.90;93.30;;;0.67;80.78;98779.03;5018778;28;20476;-73
2022/02/26 04:43:52;;;;;;;14.98;6.93;;;1.90;93.20;;;0.67;80.47;98779.03;5019872;28;20411;-74
2022/02/26 04:46:18;;;;;;;24.50;8.00;;;2.00;93.20;;;0.70;80.73;98783.91;5018813;28;20902;-74
2022/02/26 04:48:44;;;;;;;18.13;7.53;;;2.00;93.20;;;0.69;80.67;98783.09;5019080;28;20414;-73
2022/02/26 04:51:10;;;;;;;20.38;7.57;;;2.00;93.20;;;0.69;80.90;98779.66;5020202;28;20403;-74
2022/02/26 04:53:37;;;;;;;16.85;7.43;;;2.00;93.20;;;0.70;80.89;98787.34;5017927;28;20941;-74
2022/02/26 04:56:07;;;;;;;19.70;7.15;;;2.00;93.20;;;0.70;80.77;98783.91;5017971;28;20396;-73
2022/02/26 04:58:34;;;;;;;17.90;7.30;;;2.00;93.20;;;0.71;80.68;98788.16;5020045;28;20481;-72
2022/02/26 05:01:01;;;;;;;19.33;7.65;;;2.00;93.10;;;0.72;80.63;98790.63;5018760;28;20416;-73
2022/02/26 05:03:27;;;;;;;18.08;7.70;;;2.00;93.10;;;0.70;80.46;98784.72;5018040;28;20418;-73
2022/02/26 05:05:53;;;;;;;13.18;6.45;;;2.00;93.10;;;0.67;80.49;98785.06;5019842;28;20415;-75
2022/02/26 05:08:19;;;;;;;19.60;7.60;;;2.00;93.10;;;0.67;80.51;98797.25;5018429;28;20409;-75
2022/02/26 05:10:45;;;;;;;18.33;7.32;;;1.90;93.10;;;0.67;80.52;98795.47;5025851;28;20467;-73
2022/02/26 05:13:12;;;;;;;22.13;7.43;;;2.00;93.20;;;0.69;80.81;98788.31;5017391;28;20416;-74
2022/02/26 05:15:38;;;;;;;18.60;6.32;;;2.00;93.20;;;0.69;80.68;98797.91;5019772;28;20413;-74
2022/02/26 05:18:04;;;;;;;11.25;5.53;;;2.00;93.20;;;0.69;80.46;98792.69;5018870;28;20422;-75
2022/02/26 05:20:30;;;;;;;16.58;7.28;;;2.00;93.10;;;0.71;80.48;98791.56;5021325;28;20420;-74
2022/02/26 05:22:56;;;;;;;18.75;6.70;;;2.00;93.10;;;0.71;80.52;98791.56;5019759;28;20467;-74
2022/02/26 05:25:22;;;;;;;15.20;6.97;;;2.00;93.00;;;0.71;80.41;98799.41;5019764;28;20801;-73
2022/02/26 05:27:48;;;;;;;22.40;6.47;;;2.00;93.00;;;0.70;80.43;98812.56;5015773;28;20423;-74
2022/02/26 05:30:16;;;;;;;18.30;6.40;;;2.00;93.10;;;0.73;80.34;98809.69;5027004;28;20427;-71
2022/02/26 05:32:42;;;;;;;18.48;7.20;;;2.00;93.10;;;0.71;80.65;98811.59;5028904;28;20418;-72
2022/02/26 05:35:10;;;;;;;18.40;7.20;;;2.00;93.10;;;0.73;80.37;98815.72;5029743;28;20513;-74
2022/02/26 05:37:36;;;;;;;18.67;7.20;;;2.00;93.10;;;0.75;80.49;98818.16;5029304;28;20407;-73
2022/02/26 05:40:02;;;;;;;19.50;7.07;;;2.00;93.10;;;0.77;80.58;98817.03;5029933;28;20422;-73
2022/02/26 05:42:28;;;;;;;17.30;6.90;;;2.00;93.10;;;0.75;80.36;98825.97;5029056;28;20908;-72
2022/02/26 05:44:54;;;;;;;15.00;7.15;;;2.00;93.00;;;0.77;80.40;98834.44;5029559;28;20433;-74
2022/02/26 05:47:21;;;;;;;14.70;6.77;;;2.00;93.00;;;0.74;80.04;98829.56;5029115;28;20398;-74
2022/02/26 05:49:47;;;;;;;12.53;6.40;;;2.00;93.00;;;0.71;80.52;98830.66;5028735;28;20411;-74
2022/02/26 05:52:13;;;;;;;15.15;7.40;;;2.00;93.00;;;0.68;80.24;98830.97;5026449;28;20456;-74
2022/02/26 05:54:39;;;;;;;17.48;7.30;;;2.00;92.90;;;0.62;80.48;98831.56;5019736;28;20404;-74
2022/02/26 05:57:07;;;;;;;26.38;10.43;;;1.90;92.90;;;0.63;80.32;98845.44;5025014;28;20966;-75
2022/02/26 05:59:33;;;;;;;19.75;9.65;;;1.90;93.10;;;0.60;80.74;98843.94;5028736;28;20966;-74
2022/02/26 06:01:59;;;;;;;24.50;9.90;;;1.90;93.30;;;0.61;80.92;98849.97;5028728;28;20475;-74
2022/02/26 06:04:27;;;;;;;19.67;8.43;;;1.90;93.30;;;0.60;81.22;98849.16;5029535;28;20403;-75
2022/02/26 06:06:53;;;;;;;17.85;8.38;;;1.90;93.40;;;0.59;81.18;98852.75;5030996;28;20403;-74
2022/02/26 06:09:18;;;;;;;17.58;9.05;;;1.90;93.40;;;0.61;81.35;98856.00;5033547;28;20912;-74
2022/02/26 06:11:44;;;;;;;25.80;10.85;;;1.90;93.40;;;0.62;81.24;98851.59;5032701;28;20418;-74
2022/02/26 06:14:10;;;;;;;22.25;9.50;;;1.90;93.40;;;0.65;81.29;98857.34;5033267;28;20411;-74
2022/02/26 06:16:36;;;;;;;17.55;8.98;;;1.90;93.40;;;0.64;80.96;98866.13;5033020;28;20411;-75
2022/02/26 06:19:02;;;;;;;19.52;8.48;;;1.90;93.40;;;0.65;81.10;98856.53;5032539;28;20419;-74
2022/02/26 06:21:30;;;;;;;17.00;7.90;;;1.90;93.40;;;0.68;81.35;98862.22;5033153;28;20499;-75
2022/02/26 06:23:56;;;;;;;16.97;8.60;;;2.00;93.40;;;0.69;80.96;98873.47;5032639;28;20414;-74
2022/02/26 06:26:22;;;;;;;17.52;7.95;;;2.00;93.40;;;0.69;81.05;98870.88;5032889;28;20764;-74
2022/02/26 06:28:47;;;;;;;20.67;9.32;;;2.00;93.40;;;0.72;81.01;98873.19;5032735;28;20442;-72
2022/02/26 06:31:13;;;;;;;17.38;7.82;;;2.00;93.40;;;0.71;81.02;98874.16;5032817;28;20410;-73
2022/02/26 06:33:39;;;;;;;12.57;6.78;;;2.00;93.40;;;0.72;80.91;98881.00;5032499;28;20411;-73
2022/02/26 06:36:05;;;;;;;11.50;6.60;;;2.00;93.40;;;0.73;81.03;98873.03;5032807;28;20437;-73
2022/02/26 06:38:33;;;;;;;14.77;6.85;;;2.00;93.40;;;0.76;81.14;98885.75;5032759;28;20757;-74
2022/02/26 06:40:59;;;;;;;16.33;8.00;;;2.00;93.40;;;0.80;81.16;98886.28;5032755;28;20398;-74
2022/02/26 06:43:25;;;;;;;14.60;7.63;;;2.10;93.40;;;0.82;81.16;98886.94;5031060;28;20455;-74
2022/02/26 06:45:51;;;;;;;12.13;6.18;;;2.10;93.40;;;0.86;81.28;98895.25;5032491;28;20461;-73
2022/02/26 06:48:16;;;;;;;14.18;7.05;;;2.10;93.40;;;0.91;81.02;98895.63;5031847;28;20419;-73
2022/02/26 06:50:42;;;;;;;13.70;7.07;;;2.20;93.40;;;0.95;80.80;98910.00;5032654;28;20490;-73
2022/02/26 06:53:08;;;;;;;17.38;7.63;;;2.20;93.40;;;0.99;80.70;98903.50;5032426;28;20784;-74
2022/02/26 06:55:36;;;;;;;15.85;7.63;;;2.20;93.30;;;1.01;80.58;98905.00;5033672;28;20924;-74
2022/02/26 06:58:01;;;;;;;17.60;7.85;;;2.30;93.30;;;1.05;80.58;98911.53;5032472;28;20409;-72
2022/02/26 07:00:29;;;;;;;16.48;7.40;;;2.30;93.20;;;1.11;80.75;98912.72;5034067;28;20407;-74
2022/02/26 07:02:55;;;;;;;12.65;6.60;;;2.30;93.20;;;1.15;80.47;98912.25;5036040;28;20749;-74
2022/02/26 07:05:21;;;;;;;15.75;6.93;;;2.40;93.20;;;1.22;80.26;98916.84;5034316;28;20754;-74
2022/02/26 07:07:47;;;;;;;18.20;7.85;;;2.40;93.20;;;1.27;79.99;98922.44;5032051;28;21188;-73
2022/02/26 07:10:14;;;;;;;15.70;6.88;;;2.50;93.10;;;1.34;80.11;98915.63;5031210;28;20843;-74
2022/02/26 07:12:41;;;;;;;16.42;6.95;;;2.50;93.10;;;1.38;79.96;98919.53;5031756;28;20399;-73
2022/02/26 07:15:08;;;;;;;12.50;6.45;;;2.60;93.00;;;1.47;79.92;98924.66;5032259;28;20476;-74
2022/02/26 07:17:34;;;;;;;18.55;7.70;;;2.70;93.00;;;1.52;79.99;98918.97;5031173;28;20780;-73
2022/02/26 07:20:00;;;;;;;21.30;8.57;;;2.70;92.90;;;1.57;79.61;98929.78;5032007;28;20422;-73
2022/02/26 07:22:28;;;;;;;17.60;8.35;;;2.80;92.80;;;1.58;79.17;98930.59;5031672;28;20415;-74
2022/02/26 07:24:54;;;;;;;17.48;8.48;;;2.80;92.60;;;1.64;79.18;98928.16;5032161;28;20396;-73
2022/02/26 07:27:20;;;;;;;19.15;8.60;;;2.80;92.50;;;1.68;79.01;98931.28;5031954;28;20410;-74
2022/02/26 07:29:47;;;;;;;15.73;8.25;;;2.90;92.50;;;1.72;78.91;98933.44;5032226;28;20734;-73
2022/02/26 07:32:13;;;;;;;18.13;7.80;;;2.90;92.50;;;1.76;78.71;98937.34;5031424;28;20395;-72
2022/02/26 07:34:39;;;;;;;14.68;7.07;;;2.90;92.40;;;1.82;78.83;98934.09;5032084;28;20407;-75
2022/02/26 07:37:05;;;;;;;19.27;6.90;;;3.00;92.40;;;1.89;78.75;98934.28;5029512;28;20801;-69
2022/02/26 07:39:31;;;;;;;13.18;7.20;;;3.10;92.40;;;1.94;78.74;98935.47;5030885;28;20418;-72
2022/02/26 07:41:57;;;;;;;8.77;5.57;;;3.20;92.40;;;2.01;78.49;98940.88;5030925;28;20514;-73
2022/02/26 07:44:23;;;;;;;17.55;8.50;;;3.20;92.30;;;2.03;78.03;98948.56;5025907;28;20410;-72
2022/02/26 07:46:51;;;;;;;13.63;7.25;;;3.20;92.20;;;2.07;77.89;98948.06;5029307;28;20896;-69
2022/02/26 07:49:17;;;;;;;14.88;6.95;;;3.30;92.00;;;2.12;77.74;98952.81;5029890;28;20414;-73
2022/02/26 07:51:43;;;;;;;11.10;6.47;;;3.30;92.00;;;2.17;78.06;98947.94;5027441;28;20865;-72
2022/02/26 07:54:09;;;;;;;15.10;6.85;;;3.30;92.00;;;2.22;77.87;98953.50;5028353;28;20492;-74
2022/02/26 07:56:35;;;;;;;13.10;6.20;;;3.40;92.00;;;2.28;77.75;98958.91;5030414;28;20406;-73
2022/02/26 07:59:01;;;;;;;11.30;5.90;;;3.50;91.90;;;2.33;77.57;98961.84;5030806;28;20415;-74
2022/02/26 08:01:27;;;;;;;13.20;6.95;;;3.50;91.90;;;2.37;77.52;98970.19;5031094;28;20506;-73
2022/02/26 08:03:54;;;;;;;13.68;7.35;;;3.50;91.70;;;2.39;77.11;98972.66;5030795;28;20522;-72
2022/02/26 08:06:20;;;;;;;11.68;5.40;;;3.50;91.50;;;2.44;77.35;98970.38;5031261;28;20506;-72
2022/02/26 08:08:47;;;;;;;12.18;6.05;;;3.60;91.60;;;2.47;77.10;98970.88;5030755;28;20415;-73
2022/02/26 08:11:13;;;;;;;13.95;6.53;;;3.60;91.60;;;2.53;77.14;98974.63;5031084;28;20541;-73
2022/02/26 08:13:39;;;;;;;13.02;5.82;;;3.70;91.60;;;2.58;77.10;98974.97;5030679;28;20478;-73
2022/02/26 08:16:08;;;;;;;11.88;5.93;;;3.70;91.60;;;2.64;77.03;98984.78;5030881;28;20486;-73
2022/02/26 08:18:34;;;;;;;9.38;5.50;;;3.80;91.60;;;2.75;76.94;98981.03;5031232;28;20410;-73
2022/02/26 08:21:03;;;;;;;11.43;5.70;;;3.90;91.60;;;2.83;76.74;98979.25;5031074;28;20407;-73
2022/02/26 08:23:29;;;;;;;13.60;5.72;;;4.00;91.50;;;2.94;76.55;98986.75;5030546;28;20407;-73
2022/02/26 08:25:55;;;;;;;13.70;6.05;;;4.00;91.30;;;3.03;76.12;98979.72;5030590;28;20419;-73
2022/02/26 08:28:21;;;;;;;14.57;6.28;;;4.10;91.10;;;3.03;75.31;98979.72;5031014;28;20411;-72
2022/02/26 08:30:47;;;;;;;14.40;5.93;;;4.20;90.80;;;3.18;75.41;98979.88;5030264;28;20491;-73
2022/02/26 08:33:13;;;;;;;15.68;6.40;;;4.30;90.70;;;3.20;74.73;98978.75;5030320;28;21048;-72
2022/02/26 08:35:39;;;;;;;10.83;5.60;;;4.30;90.50;;;3.31;74.76;98977.56;5030711;28;20403;-70
2022/02/26 08:38:06;;;;;;;13.68;5.72;;;4.40;90.40;;;3.42;74.70;98982.47;5030461;28;20430;-72
2022/02/26 08:40:32;;;;;;;12.02;5.45;;;4.50;90.40;;;3.51;74.19;98989.34;5021059;28;20452;-71
2022/02/26 08:42:58;;;;;;;14.25;5.72;;;4.60;90.10;;;3.64;73.94;98984.41;5024407;28;20919;-71
2022/02/26 08:45:24;;;;;;;17.65;6.43;;;4.70;90.00;;;3.72;73.04;98981.75;5022087;28;20411;-72
2022/02/26 08:47:50;;;;;;;12.73;5.40;;;4.80;88.90;;;3.87;73.06;98979.25;5012941;28;20820;-73
2022/02/26 08:50:19;;;;;;;15.95;6.00;;;5.00;89.30;;;3.88;71.98;98983.50;5018475;28;20415;-75
2022/02/26 08:52:45;;;;;;;12.10;5.80;;;5.00;87.90;;;4.03;72.03;98973.97;5018840;28;20420;-76
2022/02/26 08:55:13;;;;;;;15.20;6.07;;;5.10;88.10;;;4.15;71.85;98977.00;5029082;28;20407;-77
2022/02/26 08:57:39;;;;;;;11.75;4.70;;;5.30;87.90;;;4.21;71.45;98978.97;5024102;28;20758;-73
2022/02/26 09:00:08;;;;;;;10.27;4.82;;;5.30;87.20;;;4.28;71.21;98969.44;5023557;28;20431;-74
2022/02/26 09:02:34;;;;;;;9.50;4.68;;;5.40;87.10;;;4.37;71.17;98972.78;5006538;28;20458;-75
2022/02/26 09:05:00;;;;;;;12.65;5.00;;;5.50;86.80;;;4.42;70.65;98973.94;5023962;28;20847;-76
2022/02/26 09:07:27;;;;;;;11.32;4.50;;;5.50;86.30;;;4.51;70.32;98975.50;5014538;28;20406;-76
2022/02/26 09:09:53;;;;;;;10.03;4.50;;;5.60;86.00;;;4.65;69.75;98985.28;5009391;28;20400;-77
2022/02/26 09:12:21;;;;;;;12.10;5.20;;;5.70;85.20;;;4.83;69.62;98979.72;5008432;28;20405;-76
2022/02/26 09:14:47;;;;;;;10.43;4.70;;;5.90;85.10;;;5.03;69.27;98980.88;5009340;28;20499;-76
2022/02/26 09:17:13;;;;;;;12.90;5.20;;;6.10;84.90;;;5.18;67.23;98975.69;5008949;28;20898;-75
2022/02/26 09:19:39;;;;;;;17.98;6.20;;;6.20;82.10;;;5.27;64.99;98976.41;5009636;28;20412;-75
2022/02/26 09:22:05;;;;;;;17.55;5.97;;;6.30;79.00;;;5.45;64.60;98971.66;5015524;28;20419;-80
2022/02/26 09:24:32;;;;;;;15.82;5.70;;;6.50;78.30;;;5.25;62.20;98981.03;5003081;28;20812;-82
2022/02/26 09:26:58;;;;;;;13.82;4.80;;;6.10;75.40;;;5.48;63.90;98973.94;5026778;28;20538;-78
2022/02/26 09:29:25;;;;;;;12.60;4.45;;;6.40;78.30;;;5.75;64.14;98978.56;5028866;28;20415;-74
2022/02/26 09:31:52;;;;;;;11.85;4.43;;;6.70;78.80;;;6.00;63.93;98971.25;5027719;28;20410;-75
2022/02/26 09:34:18;;;;;;;11.52;5.03;;;7.00;78.50;;;6.18;63.40;98965.56;5028257;28;20410;-74
2022/02/26 09:36:46;;;;;;;9.27;4.28;;;7.20;77.70;;;6.41;63.28;98966.25;5010320;28;20792;-74
2022/02/26 09:39:13;;;;;;;10.77;4.25;;;7.40;77.60;;;6.63;61.70;98958.38;5028703;28;20769;-74
2022/02/26 09:41:39;;;;;;;9.30;4.18;;;7.60;75.80;;;6.78;60.55;98962.59;5027826;28;20557;-75
2022/02/26 09:44:07;;;;;;;9.95;4.20;;;7.70;74.00;;;6.69;58.83;98973.44;5027327;28;20403;-75
2022/02/26 09:46:35;;;;;;;9.38;4.65;;;7.70;71.90;;;6.58;59.07;98967.66;5028736;28;20399;-73
2022/02/26 09:49:01;;;;;;;9.43;4.43;;;7.60;71.70;;;6.33;58.40;98971.63;5026540;28;20410;-72
2022/02/26 09:51:27;;;;;;;12.60;4.50;;;7.30;70.60;;;6.28;59.33;98979.25;5028025;28;20485;-72
2022/02/26 09:53:54;;;;;;;9.90;4.20;;;7.30;72.10;;;6.33;59.29;98971.63;5021957;28;20447;-68
2022/02/26 09:56:24;;;;;;;8.68;4.07;;;7.30;72.90;;;6.40;59.17;98969.88;5016680;28;20407;-71
2022/02/26 09:58:51;;;;;;;15.13;5.35;;;7.40;72.40;;;5.94;54.49;98973.78;5021567;28;20458;-74
2022/02/26 10:01:17;;;;;;;15.27;5.73;;;6.90;65.40;;;5.66;54.56;98974.38;5017567;28;20493;-73
2022/02/26 10:03:45;;;;;;;13.82;5.18;;;6.60;65.30;;;5.38;53.48;98975.97;5018608;28;20403;-72
2022/02/26 10:06:13;;;;;;;8.40;3.88;;;6.30;64.00;;;5.49;55.50;98977.38;5020941;28;20749;-72
2022/02/26 10:08:41;;;;;;;9.05;3.08;;;6.40;67.40;;;5.62;55.88;98978.38;5031219;28;20769;-73
2022/02/26 10:11:23;;;;;;;6.45;2.50;;;6.60;68.40;;;5.80;55.04;98973.56;5028056;28;20919;-73
2022/02/26 10:13:50;;;;;;;5.63;2.42;;;6.90;67.70;;;5.94;55.15;98977.22;5018338;28;20473;-73
2022/02/26 10:16:17;;;;;;;6.43;2.38;;;7.00;67.10;;;5.98;54.88;98980.28;5019820;28;20439;-74
2022/02/26 10:18:53;;;;;;;7.90;2.40;;;7.10;66.70;;;5.93;54.71;98988.75;5020117;28;20433;-74
2022/02/26 10:21:30;;;;;;;6.32;2.70;;;7.10;66.40;;;5.81;54.02;98979.63;5017320;28;20420;-74
2022/02/26 10:23:56;;;;;;;7.63;2.90;;;6.90;65.40;;;5.67;54.10;98977.81;5027470;28;20446;-73
2022/02/26 10:26:25;;;;;;;8.70;2.75;;;6.80;65.20;;;5.58;53.51;98984.16;5024962;28;20421;-73